»·PEaware :: N35033 KBUR-KLAS

N35033 :: KBUR-KLAS

FLIGHT INFORMATION

Flight Status: Arrived
Operator: Privately registered:
United States
More flights under this callsign
Pilot: Riley M. (16064)
Aircraft: Unknown
(C20T)
More flights by this aircraft type
Origin: KBUR Bob Hope-Burbank
United States
Destination: KLAS McCarran Intl
United States
More flights between these airports :: More routes between these airports
Route: +VNY3 DAG CRESO4
File this flight plan on PilotEdge
Remarks: I-5 Rating
Altitude:
(Current/Filed)
1,000ft
Speed:
(Current/Filed)
120kts
Departed: 01-Aug-18 08:26 AM
Arrived: 01-Aug-18 09:31 AM
Distance/Time
Traveled:
193nm/1:05
Distance/Time
To Go:
Arrived

Flight Plot

Page will automatically refresh every two minutes.

Flight plan parsing failed; only flown route is shown


Map Options




Map Legend


Flown Route
Filed Route
Departure Airport
Arrival Airport
Navaid (VOR, NDB)
Fix

Horizontal Profiles

Position Reports

Time Latitude Longitude Heading Altitude Ground
Speed
01-Aug-18 08:17 34.196756 -118.352667 172 781ft 0kts
01-Aug-18 08:18 34.196745 -118.352665 172 781ft 0kts
01-Aug-18 08:19 34.196738 -118.352664 172 781ft 0kts
01-Aug-18 08:20 34.196733 -118.352663 171 781ft 0kts
01-Aug-18 08:21 34.196701 -118.352586 60 781ft 2kts
01-Aug-18 08:22 34.197970 -118.355193 348 781ft 21kts
01-Aug-18 08:23 34.202595 -118.356353 344 781ft 10kts
01-Aug-18 08:24 34.209178 -118.358217 347 781ft 31kts
01-Aug-18 08:25 34.209877 -118.358648 265 781ft 0kts
01-Aug-18 08:26 34.209745 -118.359246 246 781ft 16kts
01-Aug-18 08:27 34.189889 -118.352755 162 1748ft 106kts
01-Aug-18 08:28 34.166840 -118.368999 231 3849ft 103kts
01-Aug-18 08:29 34.133503 -118.401467 227 4629ft 192kts
01-Aug-18 08:30 34.137003 -118.455331 334 5457ft 193kts
01-Aug-18 08:31 34.193172 -118.459892 354 6275ft 208kts
01-Aug-18 08:32 34.246613 -118.454618 26 6928ft 206kts
01-Aug-18 08:33 34.285068 -118.401867 44 7643ft 211kts
01-Aug-18 08:34 34.329115 -118.371461 335 8358ft 182kts
01-Aug-18 08:35 34.374897 -118.397635 325 9063ft 181kts
01-Aug-18 08:36 34.419902 -118.389766 48 9781ft 212kts
01-Aug-18 08:37 34.458497 -118.343371 349 10485ft 188kts
01-Aug-18 08:38 34.494203 -118.303887 80 10990ft 208kts
01-Aug-18 08:39 34.513037 -118.237205 45 11003ft 211kts
01-Aug-18 08:40 34.554095 -118.186164 44 11001ft 216kts
01-Aug-18 08:41 34.590316 -118.127337 45 11001ft 218kts
01-Aug-18 08:42 34.623375 -118.061404 75 11011ft 248kts
01-Aug-18 08:43 34.630929 -117.976058 78 11000ft 257kts
01-Aug-18 08:44 34.648074 -117.892531 59 11005ft 253kts
01-Aug-18 08:45 34.647655 -117.806433 84 11001ft 260kts
01-Aug-18 08:46 34.654584 -117.719381 75 11000ft 258kts
01-Aug-18 08:47 34.674225 -117.636063 65 11000ft 255kts
01-Aug-18 08:48 34.699809 -117.555831 63 11000ft 255kts
01-Aug-18 08:49 34.724841 -117.475134 65 11000ft 256kts
01-Aug-18 08:50 34.746362 -117.392555 68 10999ft 256kts
01-Aug-18 08:51 34.766498 -117.309231 68 11000ft 257kts
01-Aug-18 08:52 34.788573 -117.225098 67 11001ft 264kts
01-Aug-18 08:53 34.812660 -117.139926 67 11010ft 267kts
01-Aug-18 08:54 34.837971 -117.054755 69 11000ft 269kts
01-Aug-18 08:55 34.857187 -116.966704 69 11000ft 268kts
01-Aug-18 08:56 34.881117 -116.881470 65 10999ft 266kts
01-Aug-18 08:57 34.904686 -116.795595 68 11000ft 267kts
01-Aug-18 08:58 34.926657 -116.709530 67 10998ft 265kts
01-Aug-18 08:59 34.949328 -116.623773 67 10999ft 267kts
01-Aug-18 09:00 34.977445 -116.538917 45 11000ft 269kts
01-Aug-18 09:01 35.013063 -116.459039 52 11003ft 267kts
01-Aug-18 09:02 35.050791 -116.381582 54 10999ft 265kts
01-Aug-18 09:03 35.076284 -116.314417 60 11000ft 265kts
01-Aug-18 09:04 35.111328 -116.235254 55 11000ft 265kts
01-Aug-18 09:05 35.146710 -116.156161 57 11000ft 264kts
01-Aug-18 09:06 35.179772 -116.076012 59 11000ft 264kts
01-Aug-18 09:07 35.212360 -115.998736 55 10766ft 271kts
01-Aug-18 09:08 35.249207 -115.919475 55 10007ft 260kts
01-Aug-18 09:09 35.282679 -115.843319 57 9998ft 249kts
01-Aug-18 09:10 35.318877 -115.772553 42 10001ft 240kts
01-Aug-18 09:11 35.366524 -115.716035 36 10000ft 239kts
01-Aug-18 09:12 35.415779 -115.660665 36 10000ft 240kts
01-Aug-18 09:13 35.460439 -115.600351 69 10004ft 251kts
01-Aug-18 09:14 35.500459 -115.537262 32 10001ft 235kts
01-Aug-18 09:15 35.551581 -115.487223 34 9999ft 235kts
01-Aug-18 09:16 35.603857 -115.438520 36 9999ft 235kts
01-Aug-18 09:17 35.636366 -115.364807 68 9288ft 260kts
01-Aug-18 09:18 35.669955 -115.288243 47 8344ft 247kts
01-Aug-18 09:19 35.720895 -115.234703 34 7395ft 237kts
01-Aug-18 09:20 35.768526 -115.182040 39 6998ft 219kts
01-Aug-18 09:21 35.819392 -115.148403 22 6997ft 201kts
01-Aug-18 09:22 35.875850 -115.115095 22 7004ft 245kts
01-Aug-18 09:23 35.939121 -115.077418 22 7001ft 256kts
01-Aug-18 09:24 36.003814 -115.038596 22 6862ft 264kts
01-Aug-18 09:25 36.069861 -115.011270 13 6156ft 237kts
01-Aug-18 09:26 36.131685 -115.005389 336 5552ft 215kts
01-Aug-18 09:27 36.175382 -115.043485 300 5247ft 176kts
01-Aug-18 09:28 36.181814 -115.091204 213 4574ft 155kts
01-Aug-18 09:29 36.139839 -115.121921 228 3834ft 198kts
01-Aug-18 09:30 36.104903 -115.152568 214 2579ft 89kts
01-Aug-18 09:31 36.090411 -115.161719 200 2185ft 42kts
01-Aug-18 09:32 36.089256 -115.163056 288 2184ft 0kts
01-Aug-18 09:33 36.089181 -115.164702 207 2184ft 12kts
01-Aug-18 09:34 36.087242 -115.166688 293 2184ft 0kts
01-Aug-18 09:35 36.087242 -115.166688 293 2184ft 0kts
01-Aug-18 09:36 36.087242 -115.166688 293 2184ft 0kts

Navigation Log

Ident Type
Flight plan parsing failed, navigation log unavailable